sensor_id;sensor_type;location;lat;lon;timestamp;temperature;humidity
22706;DHT22;11520;51.198;4.468;2022-11-04T00:01:42;10.30;99.90
22706;DHT22;11520;51.198;4.468;2022-11-04T00:04:10;10.30;99.90
22706;DHT22;11520;51.198;4.468;2022-11-04T00:06:37;10.20;99.90
22706;DHT22;11520;51.198;4.468;2022-11-04T00:09:04;10.20;99.90
22706;DHT22;11520;51.198;4.468;2022-11-04T00:11:31;10.20;99.90
22706;DHT22;11520;51.198;4.468;2022-11-04T00:14:16;10.20;99.90
22706;DHT22;11520;51.198;4.468;2022-11-04T00:16:42;10.20;99.90
22706;DHT22;11520;51.198;4.468;2022-11-04T00:19:28;10.20;99.90
22706;DHT22;11520;51.198;4.468;2022-11-04T00:22:14;10.20;99.90
22706;DHT22;11520;51.198;4.468;2022-11-04T00:24:58;10.20;99.90
22706;DHT22;11520;51.198;4.468;2022-11-04T00:27:42;10.10;99.90
22706;DHT22;11520;51.198;4.468;2022-11-04T00:30:26;10.10;99.90
22706;DHT22;11520;51.198;4.468;2022-11-04T00:32:53;10.10;99.90
22706;DHT22;11520;51.198;4.468;2022-11-04T00:35:38;10.10;99.90
22706;DHT22;11520;51.198;4.468;2022-11-04T00:38:04;10.20;99.90
22706;DHT22;11520;51.198;4.468;2022-11-04T00:40:30;10.10;99.90
22706;DHT22;11520;51.198;4.468;2022-11-04T00:42:55;10.00;99.90
22706;DHT22;11520;51.198;4.468;2022-11-04T00:45:24;9.90;99.90
22706;DHT22;11520;51.198;4.468;2022-11-04T00:47:51;9.90;99.90
22706;DHT22;11520;51.198;4.468;2022-11-04T00:50:17;9.90;99.90
22706;DHT22;11520;51.198;4.468;2022-11-04T00:52:43;9.90;99.90
22706;DHT22;11520;51.198;4.468;2022-11-04T00:55:08;9.90;99.90
22706;DHT22;11520;51.198;4.468;2022-11-04T00:57:34;9.90;99.90
22706;DHT22;11520;51.198;4.468;2022-11-04T01:00:00;9.90;99.90
22706;DHT22;11520;51.198;4.468;2022-11-04T01:02:27;9.90;99.90
22706;DHT22;11520;51.198;4.468;2022-11-04T01:04:52;9.90;99.90
22706;DHT22;11520;51.198;4.468;2022-11-04T01:07:18;9.90;99.90
22706;DHT22;11520;51.198;4.468;2022-11-04T01:09:43;9.90;99.90
22706;DHT22;11520;51.198;4.468;2022-11-04T01:12:09;9.90;99.90
22706;DHT22;11520;51.198;4.468;2022-11-04T01:14:35;9.90;99.90
22706;DHT22;11520;51.198;4.468;2022-11-04T01:17:01;9.90;99.90
22706;DHT22;11520;51.198;4.468;2022-11-04T01:19:27;9.90;99.90
22706;DHT22;11520;51.198;4.468;2022-11-04T01:21:54;9.80;99.90
22706;DHT22;11520;51.198;4.468;2022-11-04T01:24:20;9.90;99.90
22706;DHT22;11520;51.198;4.468;2022-11-04T01:26:46;9.90;99.90
22706;DHT22;11520;51.198;4.468;2022-11-04T01:29:11;9.90;99.90
22706;DHT22;11520;51.198;4.468;2022-11-04T01:31:37;9.90;99.90
22706;DHT22;11520;51.198;4.468;2022-11-04T01:34:03;10.00;99.90
22706;DHT22;11520;51.198;4.468;2022-11-04T01:36:29;10.00;99.90
22706;DHT22;11520;51.198;4.468;2022-11-04T01:38:55;10.00;99.90
22706;DHT22;11520;51.198;4.468;2022-11-04T01:41:24;10.00;99.90
22706;DHT22;11520;51.198;4.468;2022-11-04T01:43:53;10.00;99.90
22706;DHT22;11520;51.198;4.468;2022-11-04T01:48:55;10.10;99.90
22706;DHT22;11520;51.198;4.468;2022-11-04T01:51:23;10.10;99.90
22706;DHT22;11520;51.198;4.468;2022-11-04T01:53:50;10.10;99.90
22706;DHT22;11520;51.198;4.468;2022-11-04T01:56:17;10.10;99.90
22706;DHT22;11520;51.198;4.468;2022-11-04T01:58:50;10.20;99.90
22706;DHT22;11520;51.198;4.468;2022-11-04T02:01:17;10.20;99.90
22706;DHT22;11520;51.198;4.468;2022-11-04T02:06:16;10.10;99.90
22706;DHT22;11520;51.198;4.468;2022-11-04T02:08:44;10.10;99.90
22706;DHT22;11520;51.198;4.468;2022-11-04T02:11:10;10.10;99.90
22706;DHT22;11520;51.198;4.468;2022-11-04T02:13:56;10.10;99.90
22706;DHT22;11520;51.198;4.468;2022-11-04T02:16:28;10.10;99.90
22706;DHT22;11520;51.198;4.468;2022-11-04T02:43:22;10.40;99.90
22706;DHT22;11520;51.198;4.468;2022-11-04T02:46:34;10.30;99.90
22706;DHT22;11520;51.198;4.468;2022-11-04T02:51:26;10.40;99.90
22706;DHT22;11520;51.198;4.468;2022-11-04T02:54:17;10.30;99.90
22706;DHT22;11520;51.198;4.468;2022-11-04T02:56:47;10.40;99.90
22706;DHT22;11520;51.198;4.468;2022-11-04T02:59:28;10.20;99.90
22706;DHT22;11520;51.198;4.468;2022-11-04T03:01:55;10.20;99.90
22706;DHT22;11520;51.198;4.468;2022-11-04T03:04:39;10.20;99.90
22706;DHT22;11520;51.198;4.468;2022-11-04T03:07:08;10.30;99.90
22706;DHT22;11520;51.198;4.468;2022-11-04T03:09:38;10.40;99.90
22706;DHT22;11520;51.198;4.468;2022-11-04T03:12:11;10.40;99.90
22706;DHT22;11520;51.198;4.468;2022-11-04T03:14:47;10.40;99.90
22706;DHT22;11520;51.198;4.468;2022-11-04T03:17:30;10.40;99.90
22706;DHT22;11520;51.198;4.468;2022-11-04T03:19:59;10.40;99.90
22706;DHT22;11520;51.198;4.468;2022-11-04T03:22:28;10.50;99.90
22706;DHT22;11520;51.198;4.468;2022-11-04T03:24:54;10.40;99.90
22706;DHT22;11520;51.198;4.468;2022-11-04T03:27:29;10.50;99.90
22706;DHT22;11520;51.198;4.468;2022-11-04T03:30:13;10.40;99.90
22706;DHT22;11520;51.198;4.468;2022-11-04T03:32:45;10.40;99.90
22706;DHT22;11520;51.198;4.468;2022-11-04T03:35:16;10.50;99.90
22706;DHT22;11520;51.198;4.468;2022-11-04T03:37:43;10.50;99.90
22706;DHT22;11520;51.198;4.468;2022-11-04T03:40:10;10.50;99.90
22706;DHT22;11520;51.198;4.468;2022-11-04T03:42:45;10.40;99.90
22706;DHT22;11520;51.198;4.468;2022-11-04T03:45:12;10.40;99.90
22706;DHT22;11520;51.198;4.468;2022-11-04T03:47:38;10.50;99.90
22706;DHT22;11520;51.198;4.468;2022-11-04T03:50:20;10.40;99.90
22706;DHT22;11520;51.198;4.468;2022-11-04T03:52:50;10.40;99.90
22706;DHT22;11520;51.198;4.468;2022-11-04T03:55:43;10.40;99.90
22706;DHT22;11520;51.198;4.468;2022-11-04T03:58:32;10.30;99.90
22706;DHT22;11520;51.198;4.468;2022-11-04T04:04:19;10.30;99.90
22706;DHT22;11520;51.198;4.468;2022-11-04T04:06:50;10.30;99.90
22706;DHT22;11520;51.198;4.468;2022-11-04T04:12:32;10.40;99.90
22706;DHT22;11520;51.198;4.468;2022-11-04T04:15:30;10.40;99.90
22706;DHT22;11520;51.198;4.468;2022-11-04T04:18:02;10.40;99.90
22706;DHT22;11520;51.198;4.468;2022-11-04T04:20:32;10.40;99.90
22706;DHT22;11520;51.198;4.468;2022-11-04T04:23:10;10.50;99.90
22706;DHT22;11520;51.198;4.468;2022-11-04T04:25:59;10.50;99.90
22706;DHT22;11520;51.198;4.468;2022-11-04T04:28:45;10.50;99.90
22706;DHT22;11520;51.198;4.468;2022-11-04T04:31:14;10.70;99.90
22706;DHT22;11520;51.198;4.468;2022-11-04T04:34:01;10.60;99.90
22706;DHT22;11520;51.198;4.468;2022-11-04T04:36:27;10.70;99.90
22706;DHT22;11520;51.198;4.468;2022-11-04T04:38:54;10.70;99.90
22706;DHT22;11520;51.198;4.468;2022-11-04T04:42:09;10.60;99.90
22706;DHT22;11520;51.198;4.468;2022-11-04T04:44:55;10.60;99.90
22706;DHT22;11520;51.198;4.468;2022-11-04T04:47:32;10.60;99.90
22706;DHT22;11520;51.198;4.468;2022-11-04T04:50:00;10.60;99.90
22706;DHT22;11520;51.198;4.468;2022-11-04T04:52:31;10.60;99.90
22706;DHT22;11520;51.198;4.468;2022-11-04T04:54:59;10.50;99.90
22706;DHT22;11520;51.198;4.468;2022-11-04T04:57:27;10.50;99.90
22706;DHT22;11520;51.198;4.468;2022-11-04T04:59:52;10.60;99.90
22706;DHT22;11520;51.198;4.468;2022-11-04T05:02:18;10.70;99.90
22706;DHT22;11520;51.198;4.468;2022-11-04T05:04:44;10.80;99.90
22706;DHT22;11520;51.198;4.468;2022-11-04T05:07:09;10.70;99.90
22706;DHT22;11520;51.198;4.468;2022-11-04T05:09:39;10.80;99.90
22706;DHT22;11520;51.198;4.468;2022-11-04T05:12:05;10.80;99.90
22706;DHT22;11520;51.198;4.468;2022-11-04T05:14:30;10.80;99.90
22706;DHT22;11520;51.198;4.468;2022-11-04T05:16:59;10.90;99.90
22706;DHT22;11520;51.198;4.468;2022-11-04T05:19:25;10.90;99.90
22706;DHT22;11520;51.198;4.468;2022-11-04T05:21:50;11.10;99.90
22706;DHT22;11520;51.198;4.468;2022-11-04T05:24:16;11.10;99.90
22706;DHT22;11520;51.198;4.468;2022-11-04T05:26:42;11.10;99.90
22706;DHT22;11520;51.198;4.468;2022-11-04T05:29:08;11.10;99.90
22706;DHT22;11520;51.198;4.468;2022-11-04T05:31:34;11.10;99.90
22706;DHT22;11520;51.198;4.468;2022-11-04T05:34:02;11.10;99.90
22706;DHT22;11520;51.198;4.468;2022-11-04T05:36:30;11.00;99.90
22706;DHT22;11520;51.198;4.468;2022-11-04T05:38:57;10.90;99.90
22706;DHT22;11520;51.198;4.468;2022-11-04T05:41:26;10.90;99.90
22706;DHT22;11520;51.198;4.468;2022-11-04T05:44:00;10.90;99.90
22706;DHT22;11520;51.198;4.468;2022-11-04T05:46:27;10.80;99.90
22706;DHT22;11520;51.198;4.468;2022-11-04T05:48:54;10.70;99.90
22706;DHT22;11520;51.198;4.468;2022-11-04T05:51:24;10.80;99.90
22706;DHT22;11520;51.198;4.468;2022-11-04T05:53:50;10.70;99.90
22706;DHT22;11520;51.198;4.468;2022-11-04T05:56:15;10.80;99.90
22706;DHT22;11520;51.198;4.468;2022-11-04T05:58:41;10.80;99.90
22706;DHT22;11520;51.198;4.468;2022-11-04T06:03:36;10.90;99.90
22706;DHT22;11520;51.198;4.468;2022-11-04T06:06:01;10.90;99.90
22706;DHT22;11520;51.198;4.468;2022-11-04T06:08:27;11.00;99.90
22706;DHT22;11520;51.198;4.468;2022-11-04T06:10:54;11.10;99.90
22706;DHT22;11520;51.198;4.468;2022-11-04T06:13:20;11.20;99.90
22706;DHT22;11520;51.198;4.468;2022-11-04T06:15:49;11.20;99.90
22706;DHT22;11520;51.198;4.468;2022-11-04T06:18:14;11.30;99.90
22706;DHT22;11520;51.198;4.468;2022-11-04T06:20:40;11.40;99.90
22706;DHT22;11520;51.198;4.468;2022-11-04T06:23:06;11.40;99.90
22706;DHT22;11520;51.198;4.468;2022-11-04T06:25:32;11.40;99.90
22706;DHT22;11520;51.198;4.468;2022-11-04T06:27:57;11.50;99.90
22706;DHT22;11520;51.198;4.468;2022-11-04T06:30:23;11.50;99.90
22706;DHT22;11520;51.198;4.468;2022-11-04T06:32:50;11.60;99.90
22706;DHT22;11520;51.198;4.468;2022-11-04T06:35:17;11.50;99.90
22706;DHT22;11520;51.198;4.468;2022-11-04T06:37:42;11.40;99.90
22706;DHT22;11520;51.198;4.468;2022-11-04T06:40:08;11.30;99.90
22706;DHT22;11520;51.198;4.468;2022-11-04T06:42:36;11.30;99.90
22706;DHT22;11520;51.198;4.468;2022-11-04T06:45:03;11.40;99.90
22706;DHT22;11520;51.198;4.468;2022-11-04T06:47:29;11.40;99.90
22706;DHT22;11520;51.198;4.468;2022-11-04T06:49:54;11.30;99.90
22706;DHT22;11520;51.198;4.468;2022-11-04T06:52:21;11.00;99.90
22706;DHT22;11520;51.198;4.468;2022-11-04T06:54:46;10.90;99.90
22706;DHT22;11520;51.198;4.468;2022-11-04T06:57:12;11.00;99.90
22706;DHT22;11520;51.198;4.468;2022-11-04T06:59:38;11.00;99.90
22706;DHT22;11520;51.198;4.468;2022-11-04T07:02:04;11.00;99.90
22706;DHT22;11520;51.198;4.468;2022-11-04T07:04:30;11.10;99.90
22706;DHT22;11520;51.198;4.468;2022-11-04T07:06:55;11.30;99.90
22706;DHT22;11520;51.198;4.468;2022-11-04T07:09:21;11.40;99.90
22706;DHT22;11520;51.198;4.468;2022-11-04T07:11:48;11.40;99.90
22706;DHT22;11520;51.198;4.468;2022-11-04T07:14:16;11.40;99.90
22706;DHT22;11520;51.198;4.468;2022-11-04T07:16:42;11.40;99.90
22706;DHT22;11520;51.198;4.468;2022-11-04T07:19:08;11.40;99.90
22706;DHT22;11520;51.198;4.468;2022-11-04T07:21:34;11.50;99.90
22706;DHT22;11520;51.198;4.468;2022-11-04T07:24:00;11.50;99.90
22706;DHT22;11520;51.198;4.468;2022-11-04T07:26:26;11.50;99.90
22706;DHT22;11520;51.198;4.468;2022-11-04T07:28:52;11.60;99.90
22706;DHT22;11520;51.198;4.468;2022-11-04T07:31:18;11.70;99.90
22706;DHT22;11520;51.198;4.468;2022-11-04T07:33:43;11.80;99.90
22706;DHT22;11520;51.198;4.468;2022-11-04T07:36:14;11.90;99.90
22706;DHT22;11520;51.198;4.468;2022-11-04T07:38:42;11.90;99.90
22706;DHT22;11520;51.198;4.468;2022-11-04T07:41:08;11.90;99.90
22706;DHT22;11520;51.198;4.468;2022-11-04T07:43:34;12.00;99.90
22706;DHT22;11520;51.198;4.468;2022-11-04T07:46:10;12.00;99.90
22706;DHT22;11520;51.198;4.468;2022-11-04T07:48:37;12.10;99.90
22706;DHT22;11520;51.198;4.468;2022-11-04T07:51:04;12.20;99.90
22706;DHT22;11520;51.198;4.468;2022-11-04T07:53:31;12.30;99.90
22706;DHT22;11520;51.198;4.468;2022-11-04T07:56:01;12.30;99.90
22706;DHT22;11520;51.198;4.468;2022-11-04T07:58:28;12.30;99.90
22706;DHT22;11520;51.198;4.468;2022-11-04T08:01:03;12.20;99.90
22706;DHT22;11520;51.198;4.468;2022-11-04T08:03:29;12.10;99.90
22706;DHT22;11520;51.198;4.468;2022-11-04T08:06:00;12.10;99.90
22706;DHT22;11520;51.198;4.468;2022-11-04T08:08:27;12.20;99.90
22706;DHT22;11520;51.198;4.468;2022-11-04T08:10:54;12.30;99.90
22706;DHT22;11520;51.198;4.468;2022-11-04T08:13:21;12.50;99.90
22706;DHT22;11520;51.198;4.468;2022-11-04T08:15:48;12.60;99.90
22706;DHT22;11520;51.198;4.468;2022-11-04T08:18:14;12.60;99.90
22706;DHT22;11520;51.198;4.468;2022-11-04T08:20:47;12.70;99.90
22706;DHT22;11520;51.198;4.468;2022-11-04T08:23:17;12.60;99.90
22706;DHT22;11520;51.198;4.468;2022-11-04T08:25:44;12.50;99.90
22706;DHT22;11520;51.198;4.468;2022-11-04T08:28:10;12.50;99.90
22706;DHT22;11520;51.198;4.468;2022-11-04T08:31:07;12.40;99.90
22706;DHT22;11520;51.198;4.468;2022-11-04T08:33:33;12.50;99.90
22706;DHT22;11520;51.198;4.468;2022-11-04T08:36:06;12.60;99.90
22706;DHT22;11520;51.198;4.468;2022-11-04T08:38:33;12.70;99.90
22706;DHT22;11520;51.198;4.468;2022-11-04T08:41:00;12.80;99.90
22706;DHT22;11520;51.198;4.468;2022-11-04T08:43:27;12.80;99.90
22706;DHT22;11520;51.198;4.468;2022-11-04T08:45:54;12.70;99.90
22706;DHT22;11520;51.198;4.468;2022-11-04T08:48:20;12.80;99.90
22706;DHT22;11520;51.198;4.468;2022-11-04T08:50:51;12.80;99.90
22706;DHT22;11520;51.198;4.468;2022-11-04T08:53:19;12.60;99.90
22706;DHT22;11520;51.198;4.468;2022-11-04T08:55:45;12.60;99.90
22706;DHT22;11520;51.198;4.468;2022-11-04T08:58:14;12.40;99.90
22706;DHT22;11520;51.198;4.468;2022-11-04T09:00:44;12.40;99.90
22706;DHT22;11520;51.198;4.468;2022-11-04T09:03:14;12.60;99.90
22706;DHT22;11520;51.198;4.468;2022-11-04T09:05:45;12.90;99.90
22706;DHT22;11520;51.198;4.468;2022-11-04T09:08:14;13.00;99.90
22706;DHT22;11520;51.198;4.468;2022-11-04T09:10:46;13.50;99.90
22706;DHT22;11520;51.198;4.468;2022-11-04T09:13:13;14.30;99.90
22706;DHT22;11520;51.198;4.468;2022-11-04T09:15:40;14.90;99.90
22706;DHT22;11520;51.198;4.468;2022-11-04T09:18:07;15.20;99.90
22706;DHT22;11520;51.198;4.468;2022-11-04T09:20:33;15.50;99.90
22706;DHT22;11520;51.198;4.468;2022-11-04T09:23:06;15.60;99.90
22706;DHT22;11520;51.198;4.468;2022-11-04T09:25:44;15.70;99.90
22706;DHT22;11520;51.198;4.468;2022-11-04T09:28:12;15.70;99.90
22706;DHT22;11520;51.198;4.468;2022-11-04T09:30:39;15.80;99.90
22706;DHT22;11520;51.198;4.468;2022-11-04T09:33:05;15.60;99.90
22706;DHT22;11520;51.198;4.468;2022-11-04T09:35:31;15.60;99.90
22706;DHT22;11520;51.198;4.468;2022-11-04T09:37:58;15.40;99.90
22706;DHT22;11520;51.198;4.468;2022-11-04T09:40:25;15.30;99.90
22706;DHT22;11520;51.198;4.468;2022-11-04T09:45:30;15.10;99.90
22706;DHT22;11520;51.198;4.468;2022-11-04T09:48:05;14.80;99.90
22706;DHT22;11520;51.198;4.468;2022-11-04T09:50:47;14.70;99.90
22706;DHT22;11520;51.198;4.468;2022-11-04T09:56:24;14.60;99.90
22706;DHT22;11520;51.198;4.468;2022-11-04T09:58:52;14.50;99.90
22706;DHT22;11520;51.198;4.468;2022-11-04T10:01:20;14.60;99.90
22706;DHT22;11520;51.198;4.468;2022-11-04T10:17:29;14.80;99.90
22706;DHT22;11520;51.198;4.468;2022-11-04T10:20:09;14.80;99.90
22706;DHT22;11520;51.198;4.468;2022-11-04T10:22:57;14.90;99.90
22706;DHT22;11520;51.198;4.468;2022-11-04T10:25:29;15.10;99.90
22706;DHT22;11520;51.198;4.468;2022-11-04T10:27:58;15.20;99.90
22706;DHT22;11520;51.198;4.468;2022-11-04T10:30:25;15.20;99.90
22706;DHT22;11520;51.198;4.468;2022-11-04T10:35:48;15.00;99.90
22706;DHT22;11520;51.198;4.468;2022-11-04T10:38:31;15.00;99.90
22706;DHT22;11520;51.198;4.468;2022-11-04T10:40:59;15.10;99.90
22706;DHT22;11520;51.198;4.468;2022-11-04T10:43:46;15.20;99.90
22706;DHT22;11520;51.198;4.468;2022-11-04T10:48:54;15.30;99.90
22706;DHT22;11520;51.198;4.468;2022-11-04T10:51:21;15.40;99.90
22706;DHT22;11520;51.198;4.468;2022-11-04T10:53:58;15.40;99.90
22706;DHT22;11520;51.198;4.468;2022-11-04T10:56:37;15.50;99.90
22706;DHT22;11520;51.198;4.468;2022-11-04T10:59:47;15.40;99.90
22706;DHT22;11520;51.198;4.468;2022-11-04T11:02:14;15.50;99.90
22706;DHT22;11520;51.198;4.468;2022-11-04T11:04:41;15.60;99.90
22706;DHT22;11520;51.198;4.468;2022-11-04T11:07:11;15.70;99.90
22706;DHT22;11520;51.198;4.468;2022-11-04T11:12:25;15.90;99.90
22706;DHT22;11520;51.198;4.468;2022-11-04T11:14:55;16.20;99.90
22706;DHT22;11520;51.198;4.468;2022-11-04T11:17:40;16.70;99.90
22706;DHT22;11520;51.198;4.468;2022-11-04T11:20:20;17.50;99.90
22706;DHT22;11520;51.198;4.468;2022-11-04T11:22:48;18.40;99.90
22706;DHT22;11520;51.198;4.468;2022-11-04T11:25:30;18.90;99.90
22706;DHT22;11520;51.198;4.468;2022-11-04T11:28:09;19.60;99.90
22706;DHT22;11520;51.198;4.468;2022-11-04T11:33:25;19.10;99.90
22706;DHT22;11520;51.198;4.468;2022-11-04T11:35:59;18.60;99.90
22706;DHT22;11520;51.198;4.468;2022-11-04T11:38:32;18.80;99.90
22706;DHT22;11520;51.198;4.468;2022-11-04T11:41:17;18.90;99.90
22706;DHT22;11520;51.198;4.468;2022-11-04T11:43:53;19.20;99.90
22706;DHT22;11520;51.198;4.468;2022-11-04T11:46:37;19.20;99.90
22706;DHT22;11520;51.198;4.468;2022-11-04T11:49:04;19.30;99.90
22706;DHT22;11520;51.198;4.468;2022-11-04T11:51:36;19.10;99.90
22706;DHT22;11520;51.198;4.468;2022-11-04T11:54:47;18.70;99.90
22706;DHT22;11520;51.198;4.468;2022-11-04T11:57:55;17.60;99.90
22706;DHT22;11520;51.198;4.468;2022-11-04T12:00:25;18.00;99.90
22706;DHT22;11520;51.198;4.468;2022-11-04T12:05:41;18.70;99.90
22706;DHT22;11520;51.198;4.468;2022-11-04T12:08:44;19.40;99.90
22706;DHT22;11520;51.198;4.468;2022-11-04T12:13:53;20.30;99.90
22706;DHT22;11520;51.198;4.468;2022-11-04T12:16:39;20.60;99.90
22706;DHT22;11520;51.198;4.468;2022-11-04T12:27:50;21.20;99.90
22706;DHT22;11520;51.198;4.468;2022-11-04T12:30:21;20.80;99.90
22706;DHT22;11520;51.198;4.468;2022-11-04T12:33:14;20.50;99.90
22706;DHT22;11520;51.198;4.468;2022-11-04T12:41:02;18.70;99.90
22706;DHT22;11520;51.198;4.468;2022-11-04T12:43:39;18.30;99.90
22706;DHT22;11520;51.198;4.468;2022-11-04T12:49:08;18.70;99.90
22706;DHT22;11520;51.198;4.468;2022-11-04T13:02:23;16.80;99.90
22706;DHT22;11520;51.198;4.468;2022-11-04T13:08:09;16.50;99.90
22706;DHT22;11520;51.198;4.468;2022-11-04T13:13:06;15.50;99.90
22706;DHT22;11520;51.198;4.468;2022-11-04T13:15:44;15.00;99.90
22706;DHT22;11520;51.198;4.468;2022-11-04T13:18:18;14.80;99.90
22706;DHT22;11520;51.198;4.468;2022-11-04T13:21:12;14.90;99.90
22706;DHT22;11520;51.198;4.468;2022-11-04T13:26:17;14.10;99.90
22706;DHT22;11520;51.198;4.468;2022-11-04T13:28:44;13.90;99.90
22706;DHT22;11520;51.198;4.468;2022-11-04T13:32:22;13.90;99.90
22706;DHT22;11520;51.198;4.468;2022-11-04T13:34:39;14.00;99.90
22706;DHT22;11520;51.198;4.468;2022-11-04T13:37:36;14.40;99.90
22706;DHT22;11520;51.198;4.468;2022-11-04T13:40:23;14.50;99.90
22706;DHT22;11520;51.198;4.468;2022-11-04T13:46:24;14.70;99.90
22706;DHT22;11520;51.198;4.468;2022-11-04T13:52:08;15.00;99.90
22706;DHT22;11520;51.198;4.468;2022-11-04T13:57:30;14.70;99.90
22706;DHT22;11520;51.198;4.468;2022-11-04T14:16:03;14.40;99.90
22706;DHT22;11520;51.198;4.468;2022-11-04T14:18:34;14.30;99.90
22706;DHT22;11520;51.198;4.468;2022-11-04T14:21:07;14.30;99.90
22706;DHT22;11520;51.198;4.468;2022-11-04T14:23:35;14.40;99.90
22706;DHT22;11520;51.198;4.468;2022-11-04T14:26:14;14.40;99.90
22706;DHT22;11520;51.198;4.468;2022-11-04T14:28:44;14.10;99.90
22706;DHT22;11520;51.198;4.468;2022-11-04T14:31:13;13.70;99.90
22706;DHT22;11520;51.198;4.468;2022-11-04T14:33:59;13.70;99.90
22706;DHT22;11520;51.198;4.468;2022-11-04T14:36:28;13.50;99.90
22706;DHT22;11520;51.198;4.468;2022-11-04T14:39:02;13.30;99.90
22706;DHT22;11520;51.198;4.468;2022-11-04T14:41:30;13.30;99.90
22706;DHT22;11520;51.198;4.468;2022-11-04T14:44:18;13.20;99.90
22706;DHT22;11520;51.198;4.468;2022-11-04T14:46:47;13.20;99.90
22706;DHT22;11520;51.198;4.468;2022-11-04T14:49:44;13.20;99.90
22706;DHT22;11520;51.198;4.468;2022-11-04T14:55:03;13.10;99.90
22706;DHT22;11520;51.198;4.468;2022-11-04T14:57:45;13.10;99.90
22706;DHT22;11520;51.198;4.468;2022-11-04T15:00:36;13.10;99.90
22706;DHT22;11520;51.198;4.468;2022-11-04T15:05:38;12.80;99.90
22706;DHT22;11520;51.198;4.468;2022-11-04T15:08:24;12.80;99.90
22706;DHT22;11520;51.198;4.468;2022-11-04T15:10:52;12.90;99.90
22706;DHT22;11520;51.198;4.468;2022-11-04T15:13:21;12.90;99.90
22706;DHT22;11520;51.198;4.468;2022-11-04T15:15:48;12.90;99.90
22706;DHT22;11520;51.198;4.468;2022-11-04T15:18:18;12.80;99.90
22706;DHT22;11520;51.198;4.468;2022-11-04T15:20:51;12.70;99.90
22706;DHT22;11520;51.198;4.468;2022-11-04T15:23:27;12.70;99.90
22706;DHT22;11520;51.198;4.468;2022-11-04T15:25:57;12.60;99.90
22706;DHT22;11520;51.198;4.468;2022-11-04T15:28:32;12.50;99.90
22706;DHT22;11520;51.198;4.468;2022-11-04T15:31:06;12.40;99.90
22706;DHT22;11520;51.198;4.468;2022-11-04T15:33:47;12.50;99.90
22706;DHT22;11520;51.198;4.468;2022-11-04T15:39:13;12.40;99.90
22706;DHT22;11520;51.198;4.468;2022-11-04T15:41:41;12.40;99.90
22706;DHT22;11520;51.198;4.468;2022-11-04T15:44:30;12.40;99.90
22706;DHT22;11520;51.198;4.468;2022-11-04T15:49:44;12.40;99.90
22706;DHT22;11520;51.198;4.468;2022-11-04T15:52:27;12.40;99.90
22706;DHT22;11520;51.198;4.468;2022-11-04T15:54:57;12.40;99.90
22706;DHT22;11520;51.198;4.468;2022-11-04T15:57:27;12.50;99.90
22706;DHT22;11520;51.198;4.468;2022-11-04T15:59:57;12.50;99.90
22706;DHT22;11520;51.198;4.468;2022-11-04T16:02:28;12.50;99.90
22706;DHT22;11520;51.198;4.468;2022-11-04T16:07:54;12.50;99.90
22706;DHT22;11520;51.198;4.468;2022-11-04T16:10:35;12.30;99.90
22706;DHT22;11520;51.198;4.468;2022-11-04T16:15:43;12.20;99.90
22706;DHT22;11520;51.198;4.468;2022-11-04T16:20:56;12.20;99.90
22706;DHT22;11520;51.198;4.468;2022-11-04T16:23:25;12.30;99.90
22706;DHT22;11520;51.198;4.468;2022-11-04T16:26:03;12.40;99.90
22706;DHT22;11520;51.198;4.468;2022-11-04T16:28:35;12.40;99.90
22706;DHT22;11520;51.198;4.468;2022-11-04T16:31:07;12.40;99.90
22706;DHT22;11520;51.198;4.468;2022-11-04T16:33:33;12.30;99.90
22706;DHT22;11520;51.198;4.468;2022-11-04T16:35:58;12.30;99.90
22706;DHT22;11520;51.198;4.468;2022-11-04T16:38:24;12.40;99.90
22706;DHT22;11520;51.198;4.468;2022-11-04T16:40:50;12.50;99.90
22706;DHT22;11520;51.198;4.468;2022-11-04T16:43:20;12.40;99.90
22706;DHT22;11520;51.198;4.468;2022-11-04T16:45:47;12.50;99.90
22706;DHT22;11520;51.198;4.468;2022-11-04T16:48:19;12.50;99.90
22706;DHT22;11520;51.198;4.468;2022-11-04T16:50:46;12.40;99.90
22706;DHT22;11520;51.198;4.468;2022-11-04T16:53:14;12.30;99.90
22706;DHT22;11520;51.198;4.468;2022-11-04T16:55:40;12.30;99.90
22706;DHT22;11520;51.198;4.468;2022-11-04T16:58:19;12.40;99.90
22706;DHT22;11520;51.198;4.468;2022-11-04T17:00:47;12.40;99.90
22706;DHT22;11520;51.198;4.468;2022-11-04T17:03:24;12.30;99.90
22706;DHT22;11520;51.198;4.468;2022-11-04T17:05:55;12.30;99.90
22706;DHT22;11520;51.198;4.468;2022-11-04T17:08:25;12.30;99.90
22706;DHT22;11520;51.198;4.468;2022-11-04T17:10:51;12.30;99.90
22706;DHT22;11520;51.198;4.468;2022-11-04T17:13:18;12.30;99.90
22706;DHT22;11520;51.198;4.468;2022-11-04T17:15:43;12.30;99.90
22706;DHT22;11520;51.198;4.468;2022-11-04T17:18:12;12.30;99.90
22706;DHT22;11520;51.198;4.468;2022-11-04T17:20:48;12.20;99.90
22706;DHT22;11520;51.198;4.468;2022-11-04T17:23:15;12.20;99.90
22706;DHT22;11520;51.198;4.468;2022-11-04T17:25:41;12.10;99.90
22706;DHT22;11520;51.198;4.468;2022-11-04T17:28:07;12.10;99.90
22706;DHT22;11520;51.198;4.468;2022-11-04T17:30:36;12.10;99.90
22706;DHT22;11520;51.198;4.468;2022-11-04T17:33:02;12.00;99.90
22706;DHT22;11520;51.198;4.468;2022-11-04T17:35:33;11.90;99.90
22706;DHT22;11520;51.198;4.468;2022-11-04T17:38:10;11.80;99.90
22706;DHT22;11520;51.198;4.468;2022-11-04T17:40:57;11.60;99.90
22706;DHT22;11520;51.198;4.468;2022-11-04T17:43:42;11.50;99.90
22706;DHT22;11520;51.198;4.468;2022-11-04T17:46:29;11.50;99.90
22706;DHT22;11520;51.198;4.468;2022-11-04T17:49:01;11.40;99.90
22706;DHT22;11520;51.198;4.468;2022-11-04T17:51:27;11.40;99.90
22706;DHT22;11520;51.198;4.468;2022-11-04T17:53:53;11.40;99.90
22706;DHT22;11520;51.198;4.468;2022-11-04T17:56:21;11.30;99.90
22706;DHT22;11520;51.198;4.468;2022-11-04T17:58:48;11.30;99.90
22706;DHT22;11520;51.198;4.468;2022-11-04T18:01:15;11.30;99.90
22706;DHT22;11520;51.198;4.468;2022-11-04T18:03:42;11.30;99.90
22706;DHT22;11520;51.198;4.468;2022-11-04T18:06:09;11.30;99.90
22706;DHT22;11520;51.198;4.468;2022-11-04T18:08:35;11.20;99.90
22706;DHT22;11520;51.198;4.468;2022-11-04T18:11:03;11.10;99.90
22706;DHT22;11520;51.198;4.468;2022-11-04T18:13:28;11.10;99.90
22706;DHT22;11520;51.198;4.468;2022-11-04T18:15:54;11.00;99.90
22706;DHT22;11520;51.198;4.468;2022-11-04T18:18:20;11.00;99.90
22706;DHT22;11520;51.198;4.468;2022-11-04T18:20:48;11.00;99.90
22706;DHT22;11520;51.198;4.468;2022-11-04T18:23:15;11.00;99.90
22706;DHT22;11520;51.198;4.468;2022-11-04T18:25:41;10.90;99.90
22706;DHT22;11520;51.198;4.468;2022-11-04T18:28:09;10.90;99.90
22706;DHT22;11520;51.198;4.468;2022-11-04T18:30:38;10.90;99.90
22706;DHT22;11520;51.198;4.468;2022-11-04T18:33:03;10.80;99.90
22706;DHT22;11520;51.198;4.468;2022-11-04T18:35:33;10.80;99.90
22706;DHT22;11520;51.198;4.468;2022-11-04T18:37:59;10.70;99.90